sensor_id;sensor_type;location;lat;lon;timestamp;temperature;humidity
8664;DHT22;4369;47.842;13.096;2023-07-09T00:02:20;21.00;99.90
8664;DHT22;4369;47.842;13.096;2023-07-09T00:04:47;21.10;99.90
8664;DHT22;4369;47.842;13.096;2023-07-09T00:07:27;21.10;99.90
8664;DHT22;4369;47.842;13.096;2023-07-09T00:09:56;21.00;92.80
8664;DHT22;4369;47.842;13.096;2023-07-09T00:12:23;21.00;99.90
8664;DHT22;4369;47.842;13.096;2023-07-09T00:14:51;21.00;99.90
8664;DHT22;4369;47.842;13.096;2023-07-09T00:17:23;20.80;99.90
8664;DHT22;4369;47.842;13.096;2023-07-09T00:19:52;20.80;99.90
8664;DHT22;4369;47.842;13.096;2023-07-09T00:22:20;20.70;99.90
8664;DHT22;4369;47.842;13.096;2023-07-09T00:24:49;20.60;99.90
8664;DHT22;4369;47.842;13.096;2023-07-09T00:27:19;20.60;99.90
8664;DHT22;4369;47.842;13.096;2023-07-09T00:29:46;20.50;99.90
8664;DHT22;4369;47.842;13.096;2023-07-09T00:32:14;20.50;99.90
8664;DHT22;4369;47.842;13.096;2023-07-09T00:34:42;20.40;1.00
8664;DHT22;4369;47.842;13.096;2023-07-09T00:37:15;20.30;1.00
8664;DHT22;4369;47.842;13.096;2023-07-09T00:39:43;20.20;1.00
8664;DHT22;4369;47.842;13.096;2023-07-09T00:42:12;20.20;1.00
8664;DHT22;4369;47.842;13.096;2023-07-09T00:44:45;20.20;52.10
8664;DHT22;4369;47.842;13.096;2023-07-09T00:47:34;20.10;99.90
8664;DHT22;4369;47.842;13.096;2023-07-09T00:50:15;20.10;99.90
8664;DHT22;4369;47.842;13.096;2023-07-09T00:52:51;20.10;99.90
8664;DHT22;4369;47.842;13.096;2023-07-09T00:55:22;20.00;1.00
8664;DHT22;4369;47.842;13.096;2023-07-09T00:57:52;19.90;99.90
8664;DHT22;4369;47.842;13.096;2023-07-09T01:00:27;19.90;99.90
8664;DHT22;4369;47.842;13.096;2023-07-09T01:02:55;19.80;99.90
8664;DHT22;4369;47.842;13.096;2023-07-09T01:05:23;19.70;99.90
8664;DHT22;4369;47.842;13.096;2023-07-09T01:07:50;19.70;99.90
8664;DHT22;4369;47.842;13.096;2023-07-09T01:10:18;19.70;99.90
8664;DHT22;4369;47.842;13.096;2023-07-09T01:12:47;19.70;99.90
8664;DHT22;4369;47.842;13.096;2023-07-09T01:15:15;19.70;99.90
8664;DHT22;4369;47.842;13.096;2023-07-09T01:17:44;19.60;99.90
8664;DHT22;4369;47.842;13.096;2023-07-09T01:20:17;19.50;1.00
8664;DHT22;4369;47.842;13.096;2023-07-09T01:22:49;19.50;1.00
8664;DHT22;4369;47.842;13.096;2023-07-09T01:25:16;19.50;1.00
8664;DHT22;4369;47.842;13.096;2023-07-09T01:27:45;19.40;1.00
8664;DHT22;4369;47.842;13.096;2023-07-09T01:30:16;19.30;1.00
8664;DHT22;4369;47.842;13.096;2023-07-09T01:32:45;19.30;20.70
8664;DHT22;4369;47.842;13.096;2023-07-09T01:35:13;19.20;99.90
8664;DHT22;4369;47.842;13.096;2023-07-09T01:37:41;19.20;99.90
8664;DHT22;4369;47.842;13.096;2023-07-09T01:40:12;19.20;1.00
8664;DHT22;4369;47.842;13.096;2023-07-09T01:42:40;19.10;1.00
8664;DHT22;4369;47.842;13.096;2023-07-09T01:45:08;19.10;99.90
8664;DHT22;4369;47.842;13.096;2023-07-09T01:47:37;19.10;99.90
8664;DHT22;4369;47.842;13.096;2023-07-09T01:50:05;19.10;1.00
8664;DHT22;4369;47.842;13.096;2023-07-09T01:52:33;19.10;1.00
8664;DHT22;4369;47.842;13.096;2023-07-09T01:55:01;19.10;1.00
8664;DHT22;4369;47.842;13.096;2023-07-09T01:57:30;19.10;1.00
8664;DHT22;4369;47.842;13.096;2023-07-09T02:00:01;19.10;1.00
8664;DHT22;4369;47.842;13.096;2023-07-09T02:02:29;19.10;99.90
8664;DHT22;4369;47.842;13.096;2023-07-09T02:04:58;19.10;81.60
8664;DHT22;4369;47.842;13.096;2023-07-09T02:07:26;19.00;1.00
8664;DHT22;4369;47.842;13.096;2023-07-09T02:09:54;19.00;1.00
8664;DHT22;4369;47.842;13.096;2023-07-09T02:12:21;19.00;24.10
8664;DHT22;4369;47.842;13.096;2023-07-09T02:14:49;18.90;99.90
8664;DHT22;4369;47.842;13.096;2023-07-09T02:17:17;18.90;1.00
8664;DHT22;4369;47.842;13.096;2023-07-09T02:19:44;18.90;1.00
8664;DHT22;4369;47.842;13.096;2023-07-09T02:22:11;18.90;1.00
8664;DHT22;4369;47.842;13.096;2023-07-09T02:24:38;18.80;99.90
8664;DHT22;4369;47.842;13.096;2023-07-09T02:27:07;18.80;99.90
8664;DHT22;4369;47.842;13.096;2023-07-09T02:29:36;18.70;24.10
8664;DHT22;4369;47.842;13.096;2023-07-09T02:32:05;18.70;1.00
8664;DHT22;4369;47.842;13.096;2023-07-09T02:34:32;18.60;1.00
8664;DHT22;4369;47.842;13.096;2023-07-09T02:37:00;18.60;99.90
8664;DHT22;4369;47.842;13.096;2023-07-09T02:39:28;18.50;1.00
8664;DHT22;4369;47.842;13.096;2023-07-09T02:41:55;18.40;56.70
8664;DHT22;4369;47.842;13.096;2023-07-09T02:44:22;18.50;1.00
8664;DHT22;4369;47.842;13.096;2023-07-09T02:46:49;18.40;1.00
8664;DHT22;4369;47.842;13.096;2023-07-09T02:49:18;18.50;99.90
8664;DHT22;4369;47.842;13.096;2023-07-09T02:51:45;18.50;99.90
8664;DHT22;4369;47.842;13.096;2023-07-09T02:54:12;18.40;14.40
8664;DHT22;4369;47.842;13.096;2023-07-09T02:56:39;18.40;38.10
8664;DHT22;4369;47.842;13.096;2023-07-09T02:59:06;18.40;1.00
8664;DHT22;4369;47.842;13.096;2023-07-09T03:01:33;18.40;99.90
8664;DHT22;4369;47.842;13.096;2023-07-09T03:04:02;18.40;99.90
8664;DHT22;4369;47.842;13.096;2023-07-09T03:06:31;18.40;99.90
8664;DHT22;4369;47.842;13.096;2023-07-09T03:09:00;18.40;1.00
8664;DHT22;4369;47.842;13.096;2023-07-09T03:11:29;18.30;1.00
8664;DHT22;4369;47.842;13.096;2023-07-09T03:13:57;18.30;55.00
8664;DHT22;4369;47.842;13.096;2023-07-09T03:16:25;18.30;99.90
8664;DHT22;4369;47.842;13.096;2023-07-09T03:18:53;18.30;99.90
8664;DHT22;4369;47.842;13.096;2023-07-09T03:21:20;18.30;1.00
8664;DHT22;4369;47.842;13.096;2023-07-09T03:23:49;18.30;1.00
8664;DHT22;4369;47.842;13.096;2023-07-09T03:26:16;18.20;95.40
8664;DHT22;4369;47.842;13.096;2023-07-09T03:28:43;18.20;1.00
8664;DHT22;4369;47.842;13.096;2023-07-09T03:31:10;18.20;99.90
8664;DHT22;4369;47.842;13.096;2023-07-09T03:33:37;18.20;1.00
8664;DHT22;4369;47.842;13.096;2023-07-09T03:36:05;18.20;6.90
8664;DHT22;4369;47.842;13.096;2023-07-09T03:38:32;18.20;1.00
8664;DHT22;4369;47.842;13.096;2023-07-09T03:41:00;18.10;99.90
8664;DHT22;4369;47.842;13.096;2023-07-09T03:43:27;18.20;1.00
8664;DHT22;4369;47.842;13.096;2023-07-09T03:45:54;18.10;99.90
8664;DHT22;4369;47.842;13.096;2023-07-09T03:48:21;18.10;99.90
8664;DHT22;4369;47.842;13.096;2023-07-09T03:50:48;18.10;99.90
8664;DHT22;4369;47.842;13.096;2023-07-09T03:53:16;18.10;59.70
8664;DHT22;4369;47.842;13.096;2023-07-09T03:55:45;18.10;1.00
8664;DHT22;4369;47.842;13.096;2023-07-09T03:58:14;18.10;99.90
8664;DHT22;4369;47.842;13.096;2023-07-09T04:00:41;18.20;99.90
8664;DHT22;4369;47.842;13.096;2023-07-09T04:03:08;18.20;99.90
8664;DHT22;4369;47.842;13.096;2023-07-09T04:05:35;18.20;99.90
8664;DHT22;4369;47.842;13.096;2023-07-09T04:08:03;18.20;1.00
8664;DHT22;4369;47.842;13.096;2023-07-09T04:10:30;18.20;1.00
8664;DHT22;4369;47.842;13.096;2023-07-09T04:12:58;18.30;1.00
8664;DHT22;4369;47.842;13.096;2023-07-09T04:15:27;18.30;1.00
8664;DHT22;4369;47.842;13.096;2023-07-09T04:17:54;18.30;1.00
8664;DHT22;4369;47.842;13.096;2023-07-09T04:20:21;18.30;1.00
8664;DHT22;4369;47.842;13.096;2023-07-09T04:22:49;18.40;1.00
8664;DHT22;4369;47.842;13.096;2023-07-09T04:25:16;18.40;1.00
8664;DHT22;4369;47.842;13.096;2023-07-09T04:27:43;18.50;1.00
8664;DHT22;4369;47.842;13.096;2023-07-09T04:30:11;18.60;1.00
8664;DHT22;4369;47.842;13.096;2023-07-09T04:32:42;18.50;1.00
8664;DHT22;4369;47.842;13.096;2023-07-09T04:35:10;18.60;1.00
8664;DHT22;4369;47.842;13.096;2023-07-09T04:37:38;18.60;1.00
8664;DHT22;4369;47.842;13.096;2023-07-09T04:40:07;18.70;1.00
8664;DHT22;4369;47.842;13.096;2023-07-09T04:42:37;18.80;1.00
8664;DHT22;4369;47.842;13.096;2023-07-09T04:45:07;18.80;1.00
8664;DHT22;4369;47.842;13.096;2023-07-09T04:47:34;18.90;91.00
8664;DHT22;4369;47.842;13.096;2023-07-09T04:50:03;18.90;95.90
8664;DHT22;4369;47.842;13.096;2023-07-09T04:52:30;19.00;1.00
8664;DHT22;4369;47.842;13.096;2023-07-09T04:54:58;19.10;33.50
8664;DHT22;4369;47.842;13.096;2023-07-09T04:57:26;19.20;99.90
8664;DHT22;4369;47.842;13.096;2023-07-09T04:59:53;19.30;99.90
8664;DHT22;4369;47.842;13.096;2023-07-09T05:02:20;19.40;99.90
8664;DHT22;4369;47.842;13.096;2023-07-09T05:04:47;19.40;1.00
8664;DHT22;4369;47.842;13.096;2023-07-09T05:07:15;19.40;99.90
8664;DHT22;4369;47.842;13.096;2023-07-09T05:09:42;19.50;99.90
8664;DHT22;4369;47.842;13.096;2023-07-09T05:12:10;19.60;99.90
8664;DHT22;4369;47.842;13.096;2023-07-09T05:14:37;19.70;99.90
8664;DHT22;4369;47.842;13.096;2023-07-09T05:17:04;19.80;99.90
8664;DHT22;4369;47.842;13.096;2023-07-09T05:19:31;19.90;99.90
8664;DHT22;4369;47.842;13.096;2023-07-09T05:21:59;20.00;24.70
8664;DHT22;4369;47.842;13.096;2023-07-09T05:24:27;20.10;1.00
8664;DHT22;4369;47.842;13.096;2023-07-09T05:26:54;20.10;1.00
8664;DHT22;4369;47.842;13.096;2023-07-09T05:29:21;20.10;99.90
8664;DHT22;4369;47.842;13.096;2023-07-09T05:31:48;20.10;99.90
8664;DHT22;4369;47.842;13.096;2023-07-09T05:34:15;20.10;99.90
8664;DHT22;4369;47.842;13.096;2023-07-09T05:36:42;20.20;1.00
8664;DHT22;4369;47.842;13.096;2023-07-09T05:39:10;20.30;99.90
8664;DHT22;4369;47.842;13.096;2023-07-09T05:41:38;20.40;1.00
8664;DHT22;4369;47.842;13.096;2023-07-09T05:44:06;20.50;29.70
8664;DHT22;4369;47.842;13.096;2023-07-09T05:46:36;20.60;99.90
8664;DHT22;4369;47.842;13.096;2023-07-09T05:49:04;20.60;99.90
8664;DHT22;4369;47.842;13.096;2023-07-09T05:51:31;20.60;53.40
8664;DHT22;4369;47.842;13.096;2023-07-09T05:53:58;20.60;99.90
8664;DHT22;4369;47.842;13.096;2023-07-09T05:56:25;20.60;1.00
8664;DHT22;4369;47.842;13.096;2023-07-09T05:58:53;20.70;1.00
8664;DHT22;4369;47.842;13.096;2023-07-09T06:01:22;20.70;99.90
8664;DHT22;4369;47.842;13.096;2023-07-09T06:03:49;20.80;99.90
8664;DHT22;4369;47.842;13.096;2023-07-09T06:06:16;20.80;99.90
8664;DHT22;4369;47.842;13.096;2023-07-09T06:08:43;20.90;99.90
8664;DHT22;4369;47.842;13.096;2023-07-09T06:11:10;21.00;83.20
8664;DHT22;4369;47.842;13.096;2023-07-09T06:13:37;21.10;1.00
8664;DHT22;4369;47.842;13.096;2023-07-09T06:16:06;21.20;1.00
8664;DHT22;4369;47.842;13.096;2023-07-09T06:18:33;21.30;1.00
8664;DHT22;4369;47.842;13.096;2023-07-09T06:21:01;21.50;1.00
8664;DHT22;4369;47.842;13.096;2023-07-09T06:23:29;21.60;1.00
8664;DHT22;4369;47.842;13.096;2023-07-09T06:25:56;21.60;1.00
8664;DHT22;4369;47.842;13.096;2023-07-09T06:28:26;21.70;99.90
8664;DHT22;4369;47.842;13.096;2023-07-09T06:30:54;21.80;99.90
8664;DHT22;4369;47.842;13.096;2023-07-09T06:33:24;21.90;99.90
8664;DHT22;4369;47.842;13.096;2023-07-09T06:35:55;22.00;99.90
8664;DHT22;4369;47.842;13.096;2023-07-09T06:38:22;22.10;99.90
8664;DHT22;4369;47.842;13.096;2023-07-09T06:40:50;22.20;87.80
8664;DHT22;4369;47.842;13.096;2023-07-09T06:43:17;22.20;17.20
8664;DHT22;4369;47.842;13.096;2023-07-09T06:45:51;22.30;1.00
8664;DHT22;4369;47.842;13.096;2023-07-09T06:48:19;22.40;43.90
8664;DHT22;4369;47.842;13.096;2023-07-09T06:50:48;22.40;7.80
8664;DHT22;4369;47.842;13.096;2023-07-09T06:53:15;22.50;1.00
8664;DHT22;4369;47.842;13.096;2023-07-09T06:55:42;22.50;1.00
8664;DHT22;4369;47.842;13.096;2023-07-09T06:58:09;22.60;1.00
8664;DHT22;4369;47.842;13.096;2023-07-09T07:00:37;22.70;1.00
8664;DHT22;4369;47.842;13.096;2023-07-09T07:03:05;22.80;1.00
8664;DHT22;4369;47.842;13.096;2023-07-09T07:05:32;23.00;1.00
8664;DHT22;4369;47.842;13.096;2023-07-09T07:08:02;23.10;1.00
8664;DHT22;4369;47.842;13.096;2023-07-09T07:10:29;23.30;1.00
8664;DHT22;4369;47.842;13.096;2023-07-09T07:12:56;23.30;1.00
8664;DHT22;4369;47.842;13.096;2023-07-09T07:15:23;23.40;1.00
8664;DHT22;4369;47.842;13.096;2023-07-09T07:17:50;23.50;1.00
8664;DHT22;4369;47.842;13.096;2023-07-09T07:20:18;23.60;1.00
8664;DHT22;4369;47.842;13.096;2023-07-09T07:22:46;23.70;1.00
8664;DHT22;4369;47.842;13.096;2023-07-09T07:25:14;23.80;1.00
8664;DHT22;4369;47.842;13.096;2023-07-09T07:27:42;23.80;1.00
8664;DHT22;4369;47.842;13.096;2023-07-09T07:30:09;23.90;1.00
8664;DHT22;4369;47.842;13.096;2023-07-09T07:32:38;24.00;1.00
8664;DHT22;4369;47.842;13.096;2023-07-09T07:35:06;24.10;1.00
8664;DHT22;4369;47.842;13.096;2023-07-09T07:37:33;24.10;1.00
8664;DHT22;4369;47.842;13.096;2023-07-09T07:40:00;24.20;1.00
8664;DHT22;4369;47.842;13.096;2023-07-09T07:42:29;24.30;1.00
8664;DHT22;4369;47.842;13.096;2023-07-09T07:44:56;24.40;1.00
8664;DHT22;4369;47.842;13.096;2023-07-09T07:47:23;24.50;1.00
8664;DHT22;4369;47.842;13.096;2023-07-09T07:49:50;24.60;1.00
8664;DHT22;4369;47.842;13.096;2023-07-09T07:52:16;24.70;1.00
8664;DHT22;4369;47.842;13.096;2023-07-09T07:54:43;24.80;1.00
8664;DHT22;4369;47.842;13.096;2023-07-09T07:57:10;24.90;1.00
8664;DHT22;4369;47.842;13.096;2023-07-09T07:59:39;25.00;1.00
8664;DHT22;4369;47.842;13.096;2023-07-09T08:02:10;25.20;1.00
8664;DHT22;4369;47.842;13.096;2023-07-09T08:04:38;25.20;1.00
8664;DHT22;4369;47.842;13.096;2023-07-09T08:07:06;25.30;1.00
8664;DHT22;4369;47.842;13.096;2023-07-09T08:09:33;25.40;1.00
8664;DHT22;4369;47.842;13.096;2023-07-09T08:12:01;25.50;1.00
8664;DHT22;4369;47.842;13.096;2023-07-09T08:14:34;25.50;1.00
8664;DHT22;4369;47.842;13.096;2023-07-09T08:17:03;25.70;1.00
8664;DHT22;4369;47.842;13.096;2023-07-09T08:19:30;25.90;1.00
8664;DHT22;4369;47.842;13.096;2023-07-09T08:21:57;26.00;1.00
8664;DHT22;4369;47.842;13.096;2023-07-09T08:24:25;26.10;1.00
8664;DHT22;4369;47.842;13.096;2023-07-09T08:26:52;26.20;1.00
8664;DHT22;4369;47.842;13.096;2023-07-09T08:29:19;26.30;1.00
8664;DHT22;4369;47.842;13.096;2023-07-09T08:31:45;26.50;1.00
8664;DHT22;4369;47.842;13.096;2023-07-09T08:34:14;26.50;1.00
8664;DHT22;4369;47.842;13.096;2023-07-09T08:36:41;26.60;1.00
8664;DHT22;4369;47.842;13.096;2023-07-09T08:39:08;26.60;1.00
8664;DHT22;4369;47.842;13.096;2023-07-09T08:41:40;26.70;1.00
8664;DHT22;4369;47.842;13.096;2023-07-09T08:44:32;26.70;1.00
8664;DHT22;4369;47.842;13.096;2023-07-09T08:47:06;26.90;1.00
8664;DHT22;4369;47.842;13.096;2023-07-09T08:49:40;26.90;1.00
8664;DHT22;4369;47.842;13.096;2023-07-09T08:52:12;27.00;1.00
8664;DHT22;4369;47.842;13.096;2023-07-09T08:54:42;27.10;1.00
8664;DHT22;4369;47.842;13.096;2023-07-09T08:57:17;27.10;1.00
8664;DHT22;4369;47.842;13.096;2023-07-09T08:59:45;27.20;1.00
8664;DHT22;4369;47.842;13.096;2023-07-09T09:02:18;27.30;1.00
8664;DHT22;4369;47.842;13.096;2023-07-09T09:04:51;27.40;1.00
8664;DHT22;4369;47.842;13.096;2023-07-09T09:07:27;27.40;1.00
8664;DHT22;4369;47.842;13.096;2023-07-09T09:09:58;27.50;1.00
8664;DHT22;4369;47.842;13.096;2023-07-09T09:12:31;27.60;1.00
8664;DHT22;4369;47.842;13.096;2023-07-09T09:15:04;27.60;1.00
8664;DHT22;4369;47.842;13.096;2023-07-09T09:17:37;27.70;1.00
8664;DHT22;4369;47.842;13.096;2023-07-09T09:20:09;27.60;1.00
8664;DHT22;4369;47.842;13.096;2023-07-09T09:22:43;27.60;1.00
8664;DHT22;4369;47.842;13.096;2023-07-09T09:25:18;27.80;1.00
8664;DHT22;4369;47.842;13.096;2023-07-09T09:27:48;27.80;1.00
8664;DHT22;4369;47.842;13.096;2023-07-09T09:30:16;27.90;1.00
8664;DHT22;4369;47.842;13.096;2023-07-09T09:32:48;28.00;1.00
8664;DHT22;4369;47.842;13.096;2023-07-09T09:35:20;28.30;1.00
8664;DHT22;4369;47.842;13.096;2023-07-09T09:37:54;28.40;1.00
8664;DHT22;4369;47.842;13.096;2023-07-09T09:40:21;28.40;1.00
8664;DHT22;4369;47.842;13.096;2023-07-09T09:42:49;28.50;1.00
8664;DHT22;4369;47.842;13.096;2023-07-09T09:45:19;28.60;1.00
8664;DHT22;4369;47.842;13.096;2023-07-09T09:47:48;28.80;1.00
8664;DHT22;4369;47.842;13.096;2023-07-09T09:50:15;28.80;1.00
8664;DHT22;4369;47.842;13.096;2023-07-09T09:52:45;28.80;1.00
8664;DHT22;4369;47.842;13.096;2023-07-09T09:55:17;28.80;1.00
8664;DHT22;4369;47.842;13.096;2023-07-09T09:57:49;28.90;1.00
8664;DHT22;4369;47.842;13.096;2023-07-09T10:00:17;29.00;1.00
8664;DHT22;4369;47.842;13.096;2023-07-09T10:02:45;29.10;1.00
8664;DHT22;4369;47.842;13.096;2023-07-09T10:05:13;29.10;1.00
8664;DHT22;4369;47.842;13.096;2023-07-09T10:07:46;29.30;1.00
8664;DHT22;4369;47.842;13.096;2023-07-09T10:10:17;29.20;1.00
8664;DHT22;4369;47.842;13.096;2023-07-09T10:12:50;29.30;1.00
8664;DHT22;4369;47.842;13.096;2023-07-09T10:15:34;29.40;1.00
8664;DHT22;4369;47.842;13.096;2023-07-09T10:18:13;29.50;1.00
8664;DHT22;4369;47.842;13.096;2023-07-09T10:20:45;29.60;1.00
8664;DHT22;4369;47.842;13.096;2023-07-09T10:23:21;29.80;1.00
8664;DHT22;4369;47.842;13.096;2023-07-09T10:25:57;30.00;1.00
8664;DHT22;4369;47.842;13.096;2023-07-09T10:29:00;30.30;1.00
8664;DHT22;4369;47.842;13.096;2023-07-09T10:31:38;30.30;1.00
8664;DHT22;4369;47.842;13.096;2023-07-09T10:34:16;30.30;1.00
8664;DHT22;4369;47.842;13.096;2023-07-09T10:36:58;30.40;1.00
8664;DHT22;4369;47.842;13.096;2023-07-09T10:39:32;30.40;1.00
8664;DHT22;4369;47.842;13.096;2023-07-09T10:42:01;30.70;1.00
8664;DHT22;4369;47.842;13.096;2023-07-09T10:44:32;30.40;1.00
8664;DHT22;4369;47.842;13.096;2023-07-09T10:47:04;30.30;1.00
8664;DHT22;4369;47.842;13.096;2023-07-09T10:49:34;30.30;1.00
8664;DHT22;4369;47.842;13.096;2023-07-09T10:52:05;30.60;1.00
8664;DHT22;4369;47.842;13.096;2023-07-09T10:54:39;30.80;1.00
8664;DHT22;4369;47.842;13.096;2023-07-09T10:57:13;30.80;1.00
8664;DHT22;4369;47.842;13.096;2023-07-09T10:59:43;31.00;1.00
8664;DHT22;4369;47.842;13.096;2023-07-09T11:02:18;31.30;1.00
8664;DHT22;4369;47.842;13.096;2023-07-09T11:04:49;31.30;1.00
8664;DHT22;4369;47.842;13.096;2023-07-09T11:07:20;31.50;1.00
8664;DHT22;4369;47.842;13.096;2023-07-09T11:09:51;31.70;1.00
8664;DHT22;4369;47.842;13.096;2023-07-09T11:12:25;31.90;1.00
8664;DHT22;4369;47.842;13.096;2023-07-09T11:14:58;32.10;1.00
8664;DHT22;4369;47.842;13.096;2023-07-09T11:17:27;32.10;1.00
8664;DHT22;4369;47.842;13.096;2023-07-09T11:19:56;32.20;1.00
8664;DHT22;4369;47.842;13.096;2023-07-09T11:22:25;32.30;1.00
8664;DHT22;4369;47.842;13.096;2023-07-09T11:25:06;32.00;1.00
8664;DHT22;4369;47.842;13.096;2023-07-09T11:27:33;31.70;1.00
8664;DHT22;4369;47.842;13.096;2023-07-09T11:30:01;31.90;1.00
8664;DHT22;4369;47.842;13.096;2023-07-09T11:32:30;32.00;1.00
8664;DHT22;4369;47.842;13.096;2023-07-09T11:35:07;32.10;1.00
8664;DHT22;4369;47.842;13.096;2023-07-09T11:37:44;32.40;1.00
8664;DHT22;4369;47.842;13.096;2023-07-09T11:40:14;32.60;1.00
8664;DHT22;4369;47.842;13.096;2023-07-09T11:42:50;32.60;1.00
8664;DHT22;4369;47.842;13.096;2023-07-09T11:45:21;32.40;1.00
8664;DHT22;4369;47.842;13.096;2023-07-09T11:47:55;32.50;1.00
8664;DHT22;4369;47.842;13.096;2023-07-09T11:50:28;32.80;1.00
8664;DHT22;4369;47.842;13.096;2023-07-09T11:52:57;33.00;1.00
8664;DHT22;4369;47.842;13.096;2023-07-09T11:55:28;33.30;1.00
8664;DHT22;4369;47.842;13.096;2023-07-09T11:57:57;33.40;1.00
8664;DHT22;4369;47.842;13.096;2023-07-09T12:00:26;33.60;1.00
8664;DHT22;4369;47.842;13.096;2023-07-09T12:02:55;33.70;1.00
8664;DHT22;4369;47.842;13.096;2023-07-09T12:05:27;33.80;1.00
8664;DHT22;4369;47.842;13.096;2023-07-09T12:07:55;33.70;1.00
8664;DHT22;4369;47.842;13.096;2023-07-09T12:10:24;33.70;1.00
8664;DHT22;4369;47.842;13.096;2023-07-09T12:12:59;33.90;1.00
8664;DHT22;4369;47.842;13.096;2023-07-09T12:15:27;34.00;1.00
8664;DHT22;4369;47.842;13.096;2023-07-09T12:17:57;34.10;1.00
8664;DHT22;4369;47.842;13.096;2023-07-09T12:20:25;34.30;1.00
8664;DHT22;4369;47.842;13.096;2023-07-09T12:22:52;34.40;1.00
8664;DHT22;4369;47.842;13.096;2023-07-09T12:25:22;34.30;1.00
8664;DHT22;4369;47.842;13.096;2023-07-09T12:27:50;34.30;1.00
8664;DHT22;4369;47.842;13.096;2023-07-09T12:30:19;34.40;1.00
8664;DHT22;4369;47.842;13.096;2023-07-09T12:32:47;34.50;1.00
8664;DHT22;4369;47.842;13.096;2023-07-09T12:35:16;34.50;1.00
8664;DHT22;4369;47.842;13.096;2023-07-09T12:37:44;34.50;1.00
8664;DHT22;4369;47.842;13.096;2023-07-09T12:40:14;34.50;1.00
8664;DHT22;4369;47.842;13.096;2023-07-09T12:42:42;34.50;1.00
8664;DHT22;4369;47.842;13.096;2023-07-09T12:45:19;34.60;1.00
8664;DHT22;4369;47.842;13.096;2023-07-09T12:47:47;34.70;1.00
8664;DHT22;4369;47.842;13.096;2023-07-09T12:50:22;34.80;1.00
8664;DHT22;4369;47.842;13.096;2023-07-09T12:52:55;34.50;1.00
8664;DHT22;4369;47.842;13.096;2023-07-09T12:55:25;34.30;1.00
8664;DHT22;4369;47.842;13.096;2023-07-09T12:57:55;34.40;1.00
8664;DHT22;4369;47.842;13.096;2023-07-09T13:00:28;34.30;1.00
8664;DHT22;4369;47.842;13.096;2023-07-09T13:02:58;34.40;1.00
8664;DHT22;4369;47.842;13.096;2023-07-09T13:05:27;34.60;1.00
8664;DHT22;4369;47.842;13.096;2023-07-09T13:07:58;34.80;1.00
8664;DHT22;4369;47.842;13.096;2023-07-09T13:10:27;34.80;1.00
8664;DHT22;4369;47.842;13.096;2023-07-09T13:12:57;34.50;1.00
8664;DHT22;4369;47.842;13.096;2023-07-09T13:15:28;34.20;1.00
8664;DHT22;4369;47.842;13.096;2023-07-09T13:18:01;34.40;1.00
8664;DHT22;4369;47.842;13.096;2023-07-09T13:20:31;34.60;1.00
8664;DHT22;4369;47.842;13.096;2023-07-09T13:22:58;35.00;1.00
8664;DHT22;4369;47.842;13.096;2023-07-09T13:25:25;35.20;1.00
8664;DHT22;4369;47.842;13.096;2023-07-09T13:27:53;35.30;1.00
8664;DHT22;4369;47.842;13.096;2023-07-09T13:30:20;35.50;1.00
8664;DHT22;4369;47.842;13.096;2023-07-09T13:32:49;35.70;1.00
8664;DHT22;4369;47.842;13.096;2023-07-09T13:35:18;35.80;1.00
8664;DHT22;4369;47.842;13.096;2023-07-09T13:37:46;36.20;1.00
8664;DHT22;4369;47.842;13.096;2023-07-09T13:40:15;36.40;1.00
8664;DHT22;4369;47.842;13.096;2023-07-09T13:42:43;36.60;1.00
8664;DHT22;4369;47.842;13.096;2023-07-09T13:45:21;36.70;1.00
8664;DHT22;4369;47.842;13.096;2023-07-09T13:47:50;37.20;1.00
8664;DHT22;4369;47.842;13.096;2023-07-09T13:50:18;37.30;1.00
8664;DHT22;4369;47.842;13.096;2023-07-09T13:52:45;37.50;1.00
8664;DHT22;4369;47.842;13.096;2023-07-09T13:55:18;38.00;1.00
8664;DHT22;4369;47.842;13.096;2023-07-09T13:57:45;38.20;1.00
8664;DHT22;4369;47.842;13.096;2023-07-09T14:00:13;38.70;1.00
8664;DHT22;4369;47.842;13.096;2023-07-09T14:02:40;39.50;1.00
8664;DHT22;4369;47.842;13.096;2023-07-09T14:05:11;40.70;1.00
8664;DHT22;4369;47.842;13.096;2023-07-09T14:07:40;41.60;1.00
8664;DHT22;4369;47.842;13.096;2023-07-09T14:10:11;42.70;1.00
8664;DHT22;4369;47.842;13.096;2023-07-09T14:12:41;44.10;1.00
8664;DHT22;4369;47.842;13.096;2023-07-09T14:15:14;44.70;1.00
8664;DHT22;4369;47.842;13.096;2023-07-09T14:17:41;46.40;1.00
8664;DHT22;4369;47.842;13.096;2023-07-09T14:20:12;47.10;1.00
8664;DHT22;4369;47.842;13.096;2023-07-09T14:22:41;47.40;1.00
8664;DHT22;4369;47.842;13.096;2023-07-09T14:25:17;47.40;1.00
8664;DHT22;4369;47.842;13.096;2023-07-09T14:27:45;47.90;1.00
8664;DHT22;4369;47.842;13.096;2023-07-09T14:30:16;47.70;1.00
8664;DHT22;4369;47.842;13.096;2023-07-09T14:32:45;47.40;1.00
8664;DHT22;4369;47.842;13.096;2023-07-09T14:35:17;47.40;1.00
8664;DHT22;4369;47.842;13.096;2023-07-09T14:37:46;47.50;1.00
8664;DHT22;4369;47.842;13.096;2023-07-09T14:40:14;47.90;1.00
8664;DHT22;4369;47.842;13.096;2023-07-09T14:42:42;47.20;1.00
8664;DHT22;4369;47.842;13.096;2023-07-09T14:45:18;47.70;1.00
8664;DHT22;4369;47.842;13.096;2023-07-09T14:47:45;48.10;1.00
8664;DHT22;4369;47.842;13.096;2023-07-09T14:50:14;47.40;1.00
8664;DHT22;4369;47.842;13.096;2023-07-09T14:52:42;46.70;1.00
8664;DHT22;4369;47.842;13.096;2023-07-09T14:55:14;46.50;1.00
8664;DHT22;4369;47.842;13.096;2023-07-09T14:57:42;46.60;1.00
8664;DHT22;4369;47.842;13.096;2023-07-09T15:00:13;46.00;1.00
8664;DHT22;4369;47.842;13.096;2023-07-09T15:02:42;45.20;1.00
8664;DHT22;4369;47.842;13.096;2023-07-09T15:05:17;45.00;1.00
8664;DHT22;4369;47.842;13.096;2023-07-09T15:07:44;44.40;1.00
8664;DHT22;4369;47.842;13.096;2023-07-09T15:10:13;44.00;1.00
8664;DHT22;4369;47.842;13.096;2023-07-09T15:12:42;43.40;1.00
8664;DHT22;4369;47.842;13.096;2023-07-09T15:15:17;43.40;1.00
8664;DHT22;4369;47.842;13.096;2023-07-09T15:17:46;43.10;1.00
8664;DHT22;4369;47.842;13.096;2023-07-09T15:20:16;42.40;1.00
8664;DHT22;4369;47.842;13.096;2023-07-09T15:22:45;42.10;1.00
8664;DHT22;4369;47.842;13.096;2023-07-09T15:25:14;41.50;1.00
8664;DHT22;4369;47.842;13.096;2023-07-09T15:27:42;41.90;1.00
8664;DHT22;4369;47.842;13.096;2023-07-09T15:30:14;41.30;1.00
8664;DHT22;4369;47.842;13.096;2023-07-09T15:32:41;40.40;1.00
8664;DHT22;4369;47.842;13.096;2023-07-09T15:35:08;40.10;1.00
8664;DHT22;4369;47.842;13.096;2023-07-09T15:37:37;40.30;1.00
8664;DHT22;4369;47.842;13.096;2023-07-09T15:40:16;40.10;1.00
8664;DHT22;4369;47.842;13.096;2023-07-09T15:42:43;40.10;1.00
8664;DHT22;4369;47.842;13.096;2023-07-09T15:45:13;39.70;1.00
8664;DHT22;4369;47.842;13.096;2023-07-09T15:47:41;39.10;1.00
8664;DHT22;4369;47.842;13.096;2023-07-09T15:50:14;38.70;1.00
8664;DHT22;4369;47.842;13.096;2023-07-09T15:52:43;38.20;1.00
8664;DHT22;4369;47.842;13.096;2023-07-09T15:55:14;38.00;1.00
8664;DHT22;4369;47.842;13.096;2023-07-09T15:57:42;37.70;1.00
8664;DHT22;4369;47.842;13.096;2023-07-09T16:00:20;37.80;1.00
8664;DHT22;4369;47.842;13.096;2023-07-09T16:02:48;37.90;1.00
8664;DHT22;4369;47.842;13.096;2023-07-09T16:05:19;37.80;1.00
8664;DHT22;4369;47.842;13.096;2023-07-09T16:07:47;37.30;1.00
8664;DHT22;4369;47.842;13.096;2023-07-09T16:10:14;37.40;1.00
8664;DHT22;4369;47.842;13.096;2023-07-09T16:12:42;37.30;1.00